sensor_id;sensor_type;location;lat;lon;timestamp;pressure;altitude;pressure_sealevel;temperature
20058;BMP180;10189;49.546;7.906;2023-07-31T00:00:34;98032.00;;;19.10
20058;BMP180;10189;49.546;7.906;2023-07-31T00:03:00;98035.00;;;19.10
20058;BMP180;10189;49.546;7.906;2023-07-31T00:05:26;98036.00;;;19.00
20058;BMP180;10189;49.546;7.906;2023-07-31T00:07:52;98026.00;;;19.00
20058;BMP180;10189;49.546;7.906;2023-07-31T00:10:19;98038.00;;;19.10
20058;BMP180;10189;49.546;7.906;2023-07-31T00:12:46;98029.00;;;19.10
20058;BMP180;10189;49.546;7.906;2023-07-31T00:15:14;98036.00;;;19.10
20058;BMP180;10189;49.546;7.906;2023-07-31T00:17:40;98029.00;;;19.00
20058;BMP180;10189;49.546;7.906;2023-07-31T00:20:07;98024.00;;;19.00
20058;BMP180;10189;49.546;7.906;2023-07-31T00:22:33;98025.00;;;19.00
20058;BMP180;10189;49.546;7.906;2023-07-31T00:24:59;98025.00;;;19.00
20058;BMP180;10189;49.546;7.906;2023-07-31T00:27:25;98011.00;;;19.00
20058;BMP180;10189;49.546;7.906;2023-07-31T00:29:51;98013.00;;;18.90
20058;BMP180;10189;49.546;7.906;2023-07-31T00:32:17;98015.00;;;18.90
20058;BMP180;10189;49.546;7.906;2023-07-31T00:34:43;98029.00;;;18.90
20058;BMP180;10189;49.546;7.906;2023-07-31T00:37:09;98024.00;;;18.80
20058;BMP180;10189;49.546;7.906;2023-07-31T00:39:35;98016.00;;;18.80
20058;BMP180;10189;49.546;7.906;2023-07-31T00:42:02;98009.00;;;18.90
20058;BMP180;10189;49.546;7.906;2023-07-31T00:44:28;97995.00;;;18.90
20058;BMP180;10189;49.546;7.906;2023-07-31T00:46:54;98006.00;;;18.80
20058;BMP180;10189;49.546;7.906;2023-07-31T00:49:22;97998.00;;;18.70
20058;BMP180;10189;49.546;7.906;2023-07-31T00:51:49;97999.00;;;18.70
20058;BMP180;10189;49.546;7.906;2023-07-31T00:54:15;98004.00;;;18.70
20058;BMP180;10189;49.546;7.906;2023-07-31T00:56:41;97998.00;;;18.80
20058;BMP180;10189;49.546;7.906;2023-07-31T00:59:08;98002.00;;;18.90
20058;BMP180;10189;49.546;7.906;2023-07-31T01:01:34;98012.00;;;18.80
20058;BMP180;10189;49.546;7.906;2023-07-31T01:04:00;98002.00;;;18.80
20058;BMP180;10189;49.546;7.906;2023-07-31T01:09:57;98003.00;;;18.60
20058;BMP180;10189;49.546;7.906;2023-07-31T01:12:27;98013.00;;;18.70
20058;BMP180;10189;49.546;7.906;2023-07-31T01:15:05;98004.00;;;18.70
20058;BMP180;10189;49.546;7.906;2023-07-31T01:17:32;97999.00;;;18.80
20058;BMP180;10189;49.546;7.906;2023-07-31T01:20:03;97991.00;;;18.80
20058;BMP180;10189;49.546;7.906;2023-07-31T01:28:20;97992.00;;;18.90
20058;BMP180;10189;49.546;7.906;2023-07-31T01:30:49;97984.00;;;18.90
20058;BMP180;10189;49.546;7.906;2023-07-31T01:33:16;97984.00;;;18.90
20058;BMP180;10189;49.546;7.906;2023-07-31T01:35:45;97982.00;;;18.80
20058;BMP180;10189;49.546;7.906;2023-07-31T01:38:12;97988.00;;;18.80
20058;BMP180;10189;49.546;7.906;2023-07-31T01:40:42;97992.00;;;18.70
20058;BMP180;10189;49.546;7.906;2023-07-31T01:43:09;97986.00;;;18.60
20058;BMP180;10189;49.546;7.906;2023-07-31T01:45:35;97987.00;;;18.60
20058;BMP180;10189;49.546;7.906;2023-07-31T01:48:00;97986.00;;;18.50
20058;BMP180;10189;49.546;7.906;2023-07-31T01:50:26;97979.00;;;18.50
20058;BMP180;10189;49.546;7.906;2023-07-31T01:52:52;97986.00;;;18.40
20058;BMP180;10189;49.546;7.906;2023-07-31T01:55:18;97988.00;;;18.30
20058;BMP180;10189;49.546;7.906;2023-07-31T01:57:44;97985.00;;;18.30
20058;BMP180;10189;49.546;7.906;2023-07-31T02:00:10;97987.00;;;18.30
20058;BMP180;10189;49.546;7.906;2023-07-31T02:02:38;97980.00;;;18.30
20058;BMP180;10189;49.546;7.906;2023-07-31T02:05:05;97979.00;;;18.30
20058;BMP180;10189;49.546;7.906;2023-07-31T02:07:31;97970.00;;;18.30
20058;BMP180;10189;49.546;7.906;2023-07-31T02:09:57;97983.00;;;18.20
20058;BMP180;10189;49.546;7.906;2023-07-31T02:12:23;97976.00;;;18.30
20058;BMP180;10189;49.546;7.906;2023-07-31T02:14:49;97974.00;;;18.20
20058;BMP180;10189;49.546;7.906;2023-07-31T02:17:14;97967.00;;;18.20
20058;BMP180;10189;49.546;7.906;2023-07-31T02:19:40;97964.00;;;18.20
20058;BMP180;10189;49.546;7.906;2023-07-31T02:22:06;97960.00;;;18.20
20058;BMP180;10189;49.546;7.906;2023-07-31T02:24:32;97950.00;;;18.10
20058;BMP180;10189;49.546;7.906;2023-07-31T02:26:58;97946.00;;;18.10
20058;BMP180;10189;49.546;7.906;2023-07-31T02:29:25;97942.00;;;18.10
20058;BMP180;10189;49.546;7.906;2023-07-31T02:31:51;97940.00;;;18.10
20058;BMP180;10189;49.546;7.906;2023-07-31T02:34:17;97933.00;;;18.20
20058;BMP180;10189;49.546;7.906;2023-07-31T02:36:43;97937.00;;;18.10
20058;BMP180;10189;49.546;7.906;2023-07-31T02:39:08;97946.00;;;18.00
20058;BMP180;10189;49.546;7.906;2023-07-31T02:41:34;97948.00;;;18.00
20058;BMP180;10189;49.546;7.906;2023-07-31T02:44:01;97952.00;;;18.00
20058;BMP180;10189;49.546;7.906;2023-07-31T02:46:27;97951.00;;;18.00
20058;BMP180;10189;49.546;7.906;2023-07-31T02:48:53;97954.00;;;18.00
20058;BMP180;10189;49.546;7.906;2023-07-31T02:51:19;97958.00;;;17.90
20058;BMP180;10189;49.546;7.906;2023-07-31T02:53:47;97956.00;;;17.80
20058;BMP180;10189;49.546;7.906;2023-07-31T02:56:13;97951.00;;;17.90
20058;BMP180;10189;49.546;7.906;2023-07-31T02:58:39;97950.00;;;17.90
20058;BMP180;10189;49.546;7.906;2023-07-31T03:01:05;97950.00;;;17.80
20058;BMP180;10189;49.546;7.906;2023-07-31T03:03:31;97948.00;;;17.80
20058;BMP180;10189;49.546;7.906;2023-07-31T03:05:57;97950.00;;;17.80
20058;BMP180;10189;49.546;7.906;2023-07-31T03:08:23;97951.00;;;17.80
20058;BMP180;10189;49.546;7.906;2023-07-31T03:10:49;97941.00;;;17.90
20058;BMP180;10189;49.546;7.906;2023-07-31T03:13:15;97949.00;;;17.80
20058;BMP180;10189;49.546;7.906;2023-07-31T03:15:44;97944.00;;;17.80
20058;BMP180;10189;49.546;7.906;2023-07-31T03:18:10;97950.00;;;17.80
20058;BMP180;10189;49.546;7.906;2023-07-31T03:20:36;97953.00;;;17.80
20058;BMP180;10189;49.546;7.906;2023-07-31T03:23:01;97944.00;;;17.90
20058;BMP180;10189;49.546;7.906;2023-07-31T03:25:27;97943.00;;;18.00
20058;BMP180;10189;49.546;7.906;2023-07-31T03:27:53;97939.00;;;17.90
20058;BMP180;10189;49.546;7.906;2023-07-31T03:30:19;97936.00;;;17.90
20058;BMP180;10189;49.546;7.906;2023-07-31T03:32:45;97942.00;;;17.90
20058;BMP180;10189;49.546;7.906;2023-07-31T03:35:11;97952.00;;;17.90
20058;BMP180;10189;49.546;7.906;2023-07-31T03:37:37;97954.00;;;17.90
20058;BMP180;10189;49.546;7.906;2023-07-31T03:40:04;97951.00;;;17.90
20058;BMP180;10189;49.546;7.906;2023-07-31T03:42:30;97949.00;;;17.80
20058;BMP180;10189;49.546;7.906;2023-07-31T03:44:56;97956.00;;;17.80
20058;BMP180;10189;49.546;7.906;2023-07-31T03:47:22;97949.00;;;17.90
20058;BMP180;10189;49.546;7.906;2023-07-31T03:49:48;97944.00;;;17.70
20058;BMP180;10189;49.546;7.906;2023-07-31T03:52:14;97957.00;;;17.70
20058;BMP180;10189;49.546;7.906;2023-07-31T03:54:40;97940.00;;;17.60
20058;BMP180;10189;49.546;7.906;2023-07-31T03:57:06;97943.00;;;17.70
20058;BMP180;10189;49.546;7.906;2023-07-31T03:59:32;97948.00;;;17.70
20058;BMP180;10189;49.546;7.906;2023-07-31T04:01:57;97951.00;;;17.70
20058;BMP180;10189;49.546;7.906;2023-07-31T04:04:23;97955.00;;;17.60
20058;BMP180;10189;49.546;7.906;2023-07-31T04:06:49;97954.00;;;17.60
20058;BMP180;10189;49.546;7.906;2023-07-31T04:09:15;97954.00;;;17.50
20058;BMP180;10189;49.546;7.906;2023-07-31T04:11:41;97946.00;;;17.50
20058;BMP180;10189;49.546;7.906;2023-07-31T04:14:06;97949.00;;;17.60
20058;BMP180;10189;49.546;7.906;2023-07-31T04:16:32;97953.00;;;17.50
20058;BMP180;10189;49.546;7.906;2023-07-31T04:18:58;97952.00;;;17.60
20058;BMP180;10189;49.546;7.906;2023-07-31T04:21:24;97948.00;;;17.60
20058;BMP180;10189;49.546;7.906;2023-07-31T04:23:50;97923.00;;;17.60
20058;BMP180;10189;49.546;7.906;2023-07-31T04:26:16;97928.00;;;17.60
20058;BMP180;10189;49.546;7.906;2023-07-31T04:28:42;97919.00;;;17.70
20058;BMP180;10189;49.546;7.906;2023-07-31T04:31:07;97928.00;;;17.70
20058;BMP180;10189;49.546;7.906;2023-07-31T04:33:34;97931.00;;;17.60
20058;BMP180;10189;49.546;7.906;2023-07-31T04:36:00;97919.00;;;17.60
20058;BMP180;10189;49.546;7.906;2023-07-31T04:38:27;97921.00;;;17.70
20058;BMP180;10189;49.546;7.906;2023-07-31T04:40:53;97922.00;;;17.70
20058;BMP180;10189;49.546;7.906;2023-07-31T04:43:18;97918.00;;;17.70
20058;BMP180;10189;49.546;7.906;2023-07-31T04:45:48;97907.00;;;17.70
20058;BMP180;10189;49.546;7.906;2023-07-31T04:48:15;97908.00;;;17.80
20058;BMP180;10189;49.546;7.906;2023-07-31T04:50:41;97913.00;;;17.90
20058;BMP180;10189;49.546;7.906;2023-07-31T04:53:07;97916.00;;;17.80
20058;BMP180;10189;49.546;7.906;2023-07-31T04:55:33;97916.00;;;17.90
20058;BMP180;10189;49.546;7.906;2023-07-31T04:57:59;97919.00;;;17.70
20058;BMP180;10189;49.546;7.906;2023-07-31T05:00:25;97905.00;;;17.90
20058;BMP180;10189;49.546;7.906;2023-07-31T05:02:51;97913.00;;;17.90
20058;BMP180;10189;49.546;7.906;2023-07-31T05:05:17;97923.00;;;18.00
20058;BMP180;10189;49.546;7.906;2023-07-31T05:07:42;97912.00;;;18.00
20058;BMP180;10189;49.546;7.906;2023-07-31T05:10:09;97918.00;;;18.10
20058;BMP180;10189;49.546;7.906;2023-07-31T05:12:35;97914.00;;;18.20
20058;BMP180;10189;49.546;7.906;2023-07-31T05:15:00;97913.00;;;18.30
20058;BMP180;10189;49.546;7.906;2023-07-31T05:17:26;97916.00;;;18.50
20058;BMP180;10189;49.546;7.906;2023-07-31T05:19:52;97911.00;;;18.60
20058;BMP180;10189;49.546;7.906;2023-07-31T05:22:18;97918.00;;;18.70
20058;BMP180;10189;49.546;7.906;2023-07-31T05:24:43;97914.00;;;18.90
20058;BMP180;10189;49.546;7.906;2023-07-31T05:27:09;97905.00;;;19.00
20058;BMP180;10189;49.546;7.906;2023-07-31T05:29:36;97900.00;;;19.10
20058;BMP180;10189;49.546;7.906;2023-07-31T05:32:02;97899.00;;;19.20
20058;BMP180;10189;49.546;7.906;2023-07-31T05:34:27;97901.00;;;19.30
20058;BMP180;10189;49.546;7.906;2023-07-31T05:36:53;97898.00;;;19.40
20058;BMP180;10189;49.546;7.906;2023-07-31T05:39:19;97901.00;;;19.30
20058;BMP180;10189;49.546;7.906;2023-07-31T05:41:45;97898.00;;;19.20
20058;BMP180;10189;49.546;7.906;2023-07-31T05:44:11;97892.00;;;19.20
20058;BMP180;10189;49.546;7.906;2023-07-31T05:46:37;97885.00;;;19.30
20058;BMP180;10189;49.546;7.906;2023-07-31T05:49:03;97885.00;;;19.20
20058;BMP180;10189;49.546;7.906;2023-07-31T05:51:28;97879.00;;;19.40
20058;BMP180;10189;49.546;7.906;2023-07-31T05:53:54;97875.00;;;19.40
20058;BMP180;10189;49.546;7.906;2023-07-31T05:56:20;97884.00;;;19.30
20058;BMP180;10189;49.546;7.906;2023-07-31T05:58:46;97881.00;;;19.30
20058;BMP180;10189;49.546;7.906;2023-07-31T06:01:13;97881.00;;;19.20
20058;BMP180;10189;49.546;7.906;2023-07-31T06:03:38;97868.00;;;19.30
20058;BMP180;10189;49.546;7.906;2023-07-31T06:06:04;97876.00;;;19.50
20058;BMP180;10189;49.546;7.906;2023-07-31T06:08:31;97875.00;;;19.70
20058;BMP180;10189;49.546;7.906;2023-07-31T06:10:56;97871.00;;;19.70
20058;BMP180;10189;49.546;7.906;2023-07-31T06:13:22;97882.00;;;19.80
20058;BMP180;10189;49.546;7.906;2023-07-31T06:15:48;97878.00;;;19.60
20058;BMP180;10189;49.546;7.906;2023-07-31T06:18:14;97874.00;;;19.40
20058;BMP180;10189;49.546;7.906;2023-07-31T06:20:40;97867.00;;;19.50
20058;BMP180;10189;49.546;7.906;2023-07-31T06:23:06;97867.00;;;19.60
20058;BMP180;10189;49.546;7.906;2023-07-31T06:25:32;97874.00;;;19.60
20058;BMP180;10189;49.546;7.906;2023-07-31T06:27:58;97879.00;;;19.50
20058;BMP180;10189;49.546;7.906;2023-07-31T06:30:23;97875.00;;;19.60
20058;BMP180;10189;49.546;7.906;2023-07-31T06:32:49;97872.00;;;19.50
20058;BMP180;10189;49.546;7.906;2023-07-31T06:35:15;97873.00;;;19.50
20058;BMP180;10189;49.546;7.906;2023-07-31T06:37:41;97868.00;;;19.40
20058;BMP180;10189;49.546;7.906;2023-07-31T06:40:10;97879.00;;;19.50
20058;BMP180;10189;49.546;7.906;2023-07-31T06:42:36;97865.00;;;19.60
20058;BMP180;10189;49.546;7.906;2023-07-31T06:45:02;97866.00;;;20.00
20058;BMP180;10189;49.546;7.906;2023-07-31T06:47:28;97868.00;;;20.40
20058;BMP180;10189;49.546;7.906;2023-07-31T06:49:56;97858.00;;;20.60
20058;BMP180;10189;49.546;7.906;2023-07-31T06:52:21;97850.00;;;20.80
20058;BMP180;10189;49.546;7.906;2023-07-31T06:55:02;97857.00;;;20.80
20058;BMP180;10189;49.546;7.906;2023-07-31T06:57:29;97865.00;;;20.70
20058;BMP180;10189;49.546;7.906;2023-07-31T06:59:55;97864.00;;;20.40
20058;BMP180;10189;49.546;7.906;2023-07-31T07:02:21;97866.00;;;20.30
20058;BMP180;10189;49.546;7.906;2023-07-31T07:04:47;97861.00;;;20.50
20058;BMP180;10189;49.546;7.906;2023-07-31T07:07:12;97860.00;;;20.70
20058;BMP180;10189;49.546;7.906;2023-07-31T07:09:38;97860.00;;;21.00
20058;BMP180;10189;49.546;7.906;2023-07-31T07:12:04;97865.00;;;21.00
20058;BMP180;10189;49.546;7.906;2023-07-31T07:14:30;97863.00;;;21.00
20058;BMP180;10189;49.546;7.906;2023-07-31T07:16:56;97859.00;;;21.00
20058;BMP180;10189;49.546;7.906;2023-07-31T07:19:22;97849.00;;;21.00
20058;BMP180;10189;49.546;7.906;2023-07-31T07:21:48;97836.00;;;21.20
20058;BMP180;10189;49.546;7.906;2023-07-31T07:24:14;97842.00;;;21.40
20058;BMP180;10189;49.546;7.906;2023-07-31T07:26:39;97839.00;;;21.90
20058;BMP180;10189;49.546;7.906;2023-07-31T07:29:05;97835.00;;;22.10
20058;BMP180;10189;49.546;7.906;2023-07-31T07:31:33;97840.00;;;22.40
20058;BMP180;10189;49.546;7.906;2023-07-31T07:33:59;97844.00;;;22.30
20058;BMP180;10189;49.546;7.906;2023-07-31T07:36:27;97844.00;;;22.50
20058;BMP180;10189;49.546;7.906;2023-07-31T07:38:53;97840.00;;;22.60
20058;BMP180;10189;49.546;7.906;2023-07-31T07:41:19;97844.00;;;22.40
20058;BMP180;10189;49.546;7.906;2023-07-31T07:43:45;97839.00;;;22.40
20058;BMP180;10189;49.546;7.906;2023-07-31T07:46:10;97844.00;;;22.30
20058;BMP180;10189;49.546;7.906;2023-07-31T07:48:37;97841.00;;;22.30
20058;BMP180;10189;49.546;7.906;2023-07-31T07:51:03;97832.00;;;22.50
20058;BMP180;10189;49.546;7.906;2023-07-31T07:53:28;97825.00;;;22.10
20058;BMP180;10189;49.546;7.906;2023-07-31T07:55:54;97825.00;;;22.50
20058;BMP180;10189;49.546;7.906;2023-07-31T07:58:20;97822.00;;;21.90
20058;BMP180;10189;49.546;7.906;2023-07-31T08:00:52;97829.00;;;21.80
20058;BMP180;10189;49.546;7.906;2023-07-31T08:03:18;97832.00;;;21.50
20058;BMP180;10189;49.546;7.906;2023-07-31T08:05:44;97834.00;;;21.80
20058;BMP180;10189;49.546;7.906;2023-07-31T08:08:15;97828.00;;;22.00
20058;BMP180;10189;49.546;7.906;2023-07-31T08:10:44;97812.00;;;21.90
20058;BMP180;10189;49.546;7.906;2023-07-31T08:13:11;97815.00;;;22.10
20058;BMP180;10189;49.546;7.906;2023-07-31T08:15:37;97791.00;;;22.40
20058;BMP180;10189;49.546;7.906;2023-07-31T08:18:03;97786.00;;;23.10
20058;BMP180;10189;49.546;7.906;2023-07-31T08:20:29;97790.00;;;23.30
20058;BMP180;10189;49.546;7.906;2023-07-31T08:22:55;97780.00;;;23.90
20058;BMP180;10189;49.546;7.906;2023-07-31T08:25:20;97779.00;;;23.60
20058;BMP180;10189;49.546;7.906;2023-07-31T08:27:46;97776.00;;;23.50
20058;BMP180;10189;49.546;7.906;2023-07-31T08:30:12;97777.00;;;23.80
20058;BMP180;10189;49.546;7.906;2023-07-31T08:32:38;97807.00;;;24.20
20058;BMP180;10189;49.546;7.906;2023-07-31T08:35:04;97789.00;;;23.70
20058;BMP180;10189;49.546;7.906;2023-07-31T08:37:30;97786.00;;;23.40
20058;BMP180;10189;49.546;7.906;2023-07-31T08:39:56;97787.00;;;23.20
20058;BMP180;10189;49.546;7.906;2023-07-31T08:42:21;97778.00;;;23.40
20058;BMP180;10189;49.546;7.906;2023-07-31T08:44:48;97787.00;;;23.40
20058;BMP180;10189;49.546;7.906;2023-07-31T08:47:16;97771.00;;;23.40
20058;BMP180;10189;49.546;7.906;2023-07-31T08:49:43;97759.00;;;23.70
20058;BMP180;10189;49.546;7.906;2023-07-31T08:52:10;97757.00;;;23.70
20058;BMP180;10189;49.546;7.906;2023-07-31T08:54:36;97759.00;;;24.10
20058;BMP180;10189;49.546;7.906;2023-07-31T08:57:02;97757.00;;;24.50
20058;BMP180;10189;49.546;7.906;2023-07-31T08:59:31;97760.00;;;24.50
20058;BMP180;10189;49.546;7.906;2023-07-31T09:02:05;97768.00;;;24.20
20058;BMP180;10189;49.546;7.906;2023-07-31T09:04:32;97762.00;;;24.50
20058;BMP180;10189;49.546;7.906;2023-07-31T09:07:02;97765.00;;;24.60
20058;BMP180;10189;49.546;7.906;2023-07-31T09:09:33;97775.00;;;24.50
20058;BMP180;10189;49.546;7.906;2023-07-31T09:11:59;97770.00;;;24.90
20058;BMP180;10189;49.546;7.906;2023-07-31T09:14:26;97782.00;;;24.90
20058;BMP180;10189;49.546;7.906;2023-07-31T09:16:57;97775.00;;;24.90
20058;BMP180;10189;49.546;7.906;2023-07-31T09:19:33;97769.00;;;24.70
20058;BMP180;10189;49.546;7.906;2023-07-31T09:22:00;97766.00;;;25.10
20058;BMP180;10189;49.546;7.906;2023-07-31T09:24:28;97774.00;;;24.90
20058;BMP180;10189;49.546;7.906;2023-07-31T09:26:57;97769.00;;;24.20
20058;BMP180;10189;49.546;7.906;2023-07-31T09:29:25;97771.00;;;24.00
20058;BMP180;10189;49.546;7.906;2023-07-31T09:31:53;97769.00;;;24.30
20058;BMP180;10189;49.546;7.906;2023-07-31T09:34:20;97756.00;;;24.90
20058;BMP180;10189;49.546;7.906;2023-07-31T09:36:50;97755.00;;;24.90
20058;BMP180;10189;49.546;7.906;2023-07-31T09:39:20;97760.00;;;24.40
20058;BMP180;10189;49.546;7.906;2023-07-31T09:41:54;97760.00;;;24.20
20058;BMP180;10189;49.546;7.906;2023-07-31T09:44:20;97769.00;;;24.50
20058;BMP180;10189;49.546;7.906;2023-07-31T09:46:47;97752.00;;;24.60
20058;BMP180;10189;49.546;7.906;2023-07-31T09:49:14;97750.00;;;24.00
20058;BMP180;10189;49.546;7.906;2023-07-31T09:51:42;97758.00;;;24.20
20058;BMP180;10189;49.546;7.906;2023-07-31T09:54:16;97757.00;;;24.00
20058;BMP180;10189;49.546;7.906;2023-07-31T09:56:48;97755.00;;;24.40
20058;BMP180;10189;49.546;7.906;2023-07-31T09:59:20;97751.00;;;24.80
20058;BMP180;10189;49.546;7.906;2023-07-31T10:01:47;97736.00;;;25.10
20058;BMP180;10189;49.546;7.906;2023-07-31T10:04:15;97731.00;;;24.80
20058;BMP180;10189;49.546;7.906;2023-07-31T10:06:44;97735.00;;;24.60
20058;BMP180;10189;49.546;7.906;2023-07-31T10:09:15;97741.00;;;24.80
20058;BMP180;10189;49.546;7.906;2023-07-31T10:11:53;97742.00;;;24.40
20058;BMP180;10189;49.546;7.906;2023-07-31T10:14:24;97739.00;;;24.60
20058;BMP180;10189;49.546;7.906;2023-07-31T10:16:51;97737.00;;;24.40
20058;BMP180;10189;49.546;7.906;2023-07-31T10:19:19;97738.00;;;24.50
20058;BMP180;10189;49.546;7.906;2023-07-31T10:21:48;97736.00;;;24.40
20058;BMP180;10189;49.546;7.906;2023-07-31T10:24:15;97737.00;;;23.90
20058;BMP180;10189;49.546;7.906;2023-07-31T10:26:46;97731.00;;;24.00
20058;BMP180;10189;49.546;7.906;2023-07-31T10:29:16;97731.00;;;24.20
20058;BMP180;10189;49.546;7.906;2023-07-31T10:31:44;97730.00;;;24.30
20058;BMP180;10189;49.546;7.906;2023-07-31T10:34:10;97718.00;;;24.70
20058;BMP180;10189;49.546;7.906;2023-07-31T10:36:36;97721.00;;;25.00
20058;BMP180;10189;49.546;7.906;2023-07-31T10:39:04;97712.00;;;24.90
20058;BMP180;10189;49.546;7.906;2023-07-31T10:41:31;97716.00;;;24.90
20058;BMP180;10189;49.546;7.906;2023-07-31T10:44:01;97725.00;;;24.90
20058;BMP180;10189;49.546;7.906;2023-07-31T10:46:28;97717.00;;;24.80
20058;BMP180;10189;49.546;7.906;2023-07-31T10:49:02;97708.00;;;25.20
20058;BMP180;10189;49.546;7.906;2023-07-31T10:51:36;97717.00;;;25.40
20058;BMP180;10189;49.546;7.906;2023-07-31T10:54:16;97710.00;;;25.60
20058;BMP180;10189;49.546;7.906;2023-07-31T10:56:50;97713.00;;;25.00
20058;BMP180;10189;49.546;7.906;2023-07-31T10:59:16;97701.00;;;24.50
20058;BMP180;10189;49.546;7.906;2023-07-31T11:01:58;97714.00;;;24.70
20058;BMP180;10189;49.546;7.906;2023-07-31T11:04:27;97702.00;;;25.30
20058;BMP180;10189;49.546;7.906;2023-07-31T11:07:01;97690.00;;;24.80
20058;BMP180;10189;49.546;7.906;2023-07-31T11:09:33;97696.00;;;25.50
20058;BMP180;10189;49.546;7.906;2023-07-31T11:11:59;97698.00;;;25.30
20058;BMP180;10189;49.546;7.906;2023-07-31T11:14:25;97694.00;;;25.50
20058;BMP180;10189;49.546;7.906;2023-07-31T11:16:52;97695.00;;;25.20
20058;BMP180;10189;49.546;7.906;2023-07-31T11:19:25;97683.00;;;25.40
20058;BMP180;10189;49.546;7.906;2023-07-31T11:21:52;97681.00;;;25.30
20058;BMP180;10189;49.546;7.906;2023-07-31T11:24:21;97684.00;;;25.10
20058;BMP180;10189;49.546;7.906;2023-07-31T11:26:54;97686.00;;;25.20
20058;BMP180;10189;49.546;7.906;2023-07-31T11:29:20;97675.00;;;25.40
20058;BMP180;10189;49.546;7.906;2023-07-31T11:31:47;97687.00;;;25.40
20058;BMP180;10189;49.546;7.906;2023-07-31T11:34:14;97678.00;;;25.40
20058;BMP180;10189;49.546;7.906;2023-07-31T11:36:40;97681.00;;;25.20
20058;BMP180;10189;49.546;7.906;2023-07-31T11:39:10;97675.00;;;25.10
20058;BMP180;10189;49.546;7.906;2023-07-31T11:41:40;97682.00;;;25.10
20058;BMP180;10189;49.546;7.906;2023-07-31T11:44:06;97683.00;;;24.80
20058;BMP180;10189;49.546;7.906;2023-07-31T11:46:32;97673.00;;;24.90
20058;BMP180;10189;49.546;7.906;2023-07-31T11:49:01;97685.00;;;24.70
20058;BMP180;10189;49.546;7.906;2023-07-31T11:51:28;97677.00;;;24.70
20058;BMP180;10189;49.546;7.906;2023-07-31T11:54:00;97678.00;;;24.90
20058;BMP180;10189;49.546;7.906;2023-07-31T11:56:27;97678.00;;;25.20
20058;BMP180;10189;49.546;7.906;2023-07-31T11:58:59;97680.00;;;25.20
20058;BMP180;10189;49.546;7.906;2023-07-31T12:01:27;97686.00;;;25.00
20058;BMP180;10189;49.546;7.906;2023-07-31T12:03:54;97673.00;;;24.70
20058;BMP180;10189;49.546;7.906;2023-07-31T12:06:20;97674.00;;;24.80
20058;BMP180;10189;49.546;7.906;2023-07-31T12:08:47;97674.00;;;25.30
20058;BMP180;10189;49.546;7.906;2023-07-31T12:11:14;97674.00;;;25.50
20058;BMP180;10189;49.546;7.906;2023-07-31T12:13:41;97674.00;;;25.60
20058;BMP180;10189;49.546;7.906;2023-07-31T12:16:07;97673.00;;;25.80
20058;BMP180;10189;49.546;7.906;2023-07-31T12:18:37;97671.00;;;25.90
20058;BMP180;10189;49.546;7.906;2023-07-31T12:21:09;97666.00;;;25.50
20058;BMP180;10189;49.546;7.906;2023-07-31T12:23:37;97663.00;;;25.60
20058;BMP180;10189;49.546;7.906;2023-07-31T12:26:15;97645.00;;;26.00
20058;BMP180;10189;49.546;7.906;2023-07-31T12:28:48;97646.00;;;26.00
20058;BMP180;10189;49.546;7.906;2023-07-31T12:31:16;97665.00;;;26.30
20058;BMP180;10189;49.546;7.906;2023-07-31T12:33:47;97662.00;;;26.00
20058;BMP180;10189;49.546;7.906;2023-07-31T12:36:22;97655.00;;;26.10
20058;BMP180;10189;49.546;7.906;2023-07-31T12:38:50;97663.00;;;26.30
20058;BMP180;10189;49.546;7.906;2023-07-31T12:41:17;97642.00;;;26.40
20058;BMP180;10189;49.546;7.906;2023-07-31T12:43:44;97639.00;;;26.30
20058;BMP180;10189;49.546;7.906;2023-07-31T12:46:11;97627.00;;;26.00
20058;BMP180;10189;49.546;7.906;2023-07-31T12:48:38;97637.00;;;26.20
20058;BMP180;10189;49.546;7.906;2023-07-31T12:51:05;97636.00;;;25.90
20058;BMP180;10189;49.546;7.906;2023-07-31T12:53:32;97623.00;;;26.00
20058;BMP180;10189;49.546;7.906;2023-07-31T12:55:59;97628.00;;;25.50
20058;BMP180;10189;49.546;7.906;2023-07-31T12:58:24;97620.00;;;25.10
20058;BMP180;10189;49.546;7.906;2023-07-31T13:00:51;97636.00;;;25.10
20058;BMP180;10189;49.546;7.906;2023-07-31T13:03:17;97636.00;;;25.00
20058;BMP180;10189;49.546;7.906;2023-07-31T13:05:42;97617.00;;;24.70
20058;BMP180;10189;49.546;7.906;2023-07-31T13:08:08;97632.00;;;24.60
20058;BMP180;10189;49.546;7.906;2023-07-31T13:10:34;97621.00;;;24.50
20058;BMP180;10189;49.546;7.906;2023-07-31T13:13:00;97641.00;;;24.20
20058;BMP180;10189;49.546;7.906;2023-07-31T13:15:26;97642.00;;;24.20
20058;BMP180;10189;49.546;7.906;2023-07-31T13:17:52;97655.00;;;23.90
20058;BMP180;10189;49.546;7.906;2023-07-31T13:20:18;97650.00;;;23.80
20058;BMP180;10189;49.546;7.906;2023-07-31T13:22:44;97637.00;;;23.90
20058;BMP180;10189;49.546;7.906;2023-07-31T13:25:10;97638.00;;;24.20
20058;BMP180;10189;49.546;7.906;2023-07-31T13:27:36;97646.00;;;24.50
20058;BMP180;10189;49.546;7.906;2023-07-31T13:30:03;97650.00;;;24.20
20058;BMP180;10189;49.546;7.906;2023-07-31T13:32:29;97635.00;;;24.20
20058;BMP180;10189;49.546;7.906;2023-07-31T13:34:56;97626.00;;;24.00
20058;BMP180;10189;49.546;7.906;2023-07-31T13:37:22;97633.00;;;24.30
20058;BMP180;10189;49.546;7.906;2023-07-31T13:39:48;97628.00;;;24.50
20058;BMP180;10189;49.546;7.906;2023-07-31T13:42:14;97629.00;;;24.80
20058;BMP180;10189;49.546;7.906;2023-07-31T13:44:41;97625.00;;;24.50
20058;BMP180;10189;49.546;7.906;2023-07-31T13:47:09;97624.00;;;24.10
20058;BMP180;10189;49.546;7.906;2023-07-31T13:49:37;97613.00;;;24.40
20058;BMP180;10189;49.546;7.906;2023-07-31T13:52:05;97604.00;;;24.40
20058;BMP180;10189;49.546;7.906;2023-07-31T13:54:31;97606.00;;;24.40
20058;BMP180;10189;49.546;7.906;2023-07-31T13:56:57;97605.00;;;24.20
20058;BMP180;10189;49.546;7.906;2023-07-31T13:59:23;97596.00;;;23.90
20058;BMP180;10189;49.546;7.906;2023-07-31T14:01:50;97595.00;;;23.80
20058;BMP180;10189;49.546;7.906;2023-07-31T14:04:17;97605.00;;;23.70
20058;BMP180;10189;49.546;7.906;2023-07-31T14:06:46;97608.00;;;23.70
20058;BMP180;10189;49.546;7.906;2023-07-31T14:09:14;97608.00;;;23.50
20058;BMP180;10189;49.546;7.906;2023-07-31T14:11:40;97612.00;;;23.50
20058;BMP180;10189;49.546;7.906;2023-07-31T14:14:06;97611.00;;;23.60
20058;BMP180;10189;49.546;7.906;2023-07-31T14:16:32;97606.00;;;23.60